Time;durP1;ratioP1;P1;durP2;ratioP2;P2;SDS_P1;SDS_P2;PMS_P1;PMS_P2;Temp;Humidity;BMP_temperature;BMP_pressure;BME280_temperature;BME280_humidity;BME280_pressure;Samples;Min_cycle;Max_cycle;Signal;HPM_P1;HPM_P2
2023/03/03 00:00:07;;;;;;;16.37;12.37;;;6.00;74.90;;;9.04;52.14;102457.94;4881929;29;20206;-58
2023/03/03 00:02:33;;;;;;;15.97;12.10;;;6.00;74.50;;;9.03;52.16;102452.84;4866926;29;20686;-57
2023/03/03 00:05:01;;;;;;;18.07;12.57;;;6.00;74.80;;;9.04;52.52;102450.06;4862673;29;20202;-57
2023/03/03 00:07:28;;;;;;;17.50;12.47;;;6.00;75.50;;;9.08;53.16;102451.50;4863183;29;20214;-57
2023/03/03 00:09:55;;;;;;;18.23;12.63;;;6.00;75.80;;;9.12;53.13;102447.69;4865964;29;20200;-58
2023/03/03 00:12:27;;;;;;;16.03;12.17;;;6.00;76.10;;;9.15;52.86;102450.03;4878044;29;20242;-59
2023/03/03 00:14:54;;;;;;;18.97;13.80;;;6.10;75.90;;;9.12;52.44;102442.44;4884117;29;20188;-59
2023/03/03 00:17:24;;;;;;;19.13;13.20;;;6.10;75.30;;;9.08;52.87;102435.72;4883898;29;20200;-59
2023/03/03 00:19:52;;;;;;;19.77;13.97;;;6.10;75.60;;;9.08;52.98;102446.25;4873127;29;20206;-59
2023/03/03 00:22:29;;;;;;;20.20;14.20;;;6.10;75.90;;;9.07;52.93;102434.09;4868646;29;20207;-59
2023/03/03 00:24:59;;;;;;;20.00;13.77;;;6.10;75.90;;;9.09;53.01;102434.78;4862665;29;20523;-60
2023/03/03 00:27:30;;;;;;;18.77;14.10;;;6.10;75.90;;;9.07;53.05;102444.59;4862732;29;20215;-59
2023/03/03 00:29:59;;;;;;;19.47;14.07;;;6.10;75.90;;;9.04;53.08;102450.06;4862914;29;20192;-59
2023/03/03 00:32:37;;;;;;;17.13;12.57;;;6.10;76.00;;;8.98;53.72;102442.69;4873300;29;20202;-56
2023/03/03 00:35:24;;;;;;;18.60;14.13;;;6.10;76.10;;;8.95;53.86;102447.34;4881570;29;20176;-59
2023/03/03 00:37:55;;;;;;;21.57;14.30;;;6.00;76.80;;;8.99;53.83;102449.59;4881286;29;20180;-58
2023/03/03 00:40:24;;;;;;;20.23;14.33;;;6.00;77.10;;;9.02;53.92;102452.00;4870176;29;20197;-60
2023/03/03 00:42:56;;;;;;;20.53;14.90;;;6.10;76.80;;;9.01;54.16;102458.19;4862319;29;20252;-59
2023/03/03 00:45:29;;;;;;;21.07;14.63;;;6.10;77.10;;;9.05;53.81;102446.50;4872115;29;20211;-56
2023/03/03 00:47:57;;;;;;;22.83;14.57;;;6.10;76.90;;;9.07;53.67;102449.00;4880300;29;20232;-57
2023/03/03 00:50:29;;;;;;;22.83;14.73;;;6.00;76.70;;;9.05;53.71;102450.91;4880104;29;20203;-57
2023/03/03 00:53:06;;;;;;;25.90;15.90;;;6.00;77.30;;;9.04;54.10;102450.06;4867040;29;20229;-59
2023/03/03 00:55:34;;;;;;;24.93;15.90;;;6.00;77.60;;;9.07;53.96;102449.84;4864080;29;20211;-59
2023/03/03 00:58:03;;;;;;;23.07;15.17;;;6.00;77.80;;;9.07;54.16;102444.59;4880524;29;20361;-60
2023/03/03 01:00:31;;;;;;;25.67;16.77;;;6.00;77.80;;;9.09;54.27;102453.16;4879919;29;20219;-59
2023/03/03 01:03:04;;;;;;;22.27;15.87;;;6.00;77.90;;;9.11;54.56;102456.50;4879808;29;20601;-58
2023/03/03 01:05:31;;;;;;;23.63;16.67;;;6.10;78.20;;;9.14;54.88;102456.28;4879775;29;20649;-56
2023/03/03 01:07:58;;;;;;;26.37;17.03;;;6.10;78.00;;;9.18;54.47;102452.44;4880532;29;20619;-59
2023/03/03 01:10:27;;;;;;;23.53;16.47;;;6.20;77.80;;;9.21;54.27;102457.44;4879353;29;20215;-58
2023/03/03 01:12:56;;;;;;;24.17;16.03;;;6.20;77.90;;;9.26;54.12;102452.66;4862320;29;20220;-58
2023/03/03 01:15:24;;;;;;;22.47;15.00;;;6.20;77.40;;;9.27;54.03;102453.50;4880222;29;20248;-57
2023/03/03 01:17:51;;;;;;;26.47;16.63;;;6.20;77.50;;;9.25;54.42;102448.34;4880163;29;20215;-59
2023/03/03 01:20:18;;;;;;;28.63;17.67;;;6.20;77.90;;;9.26;54.14;102439.53;4871987;29;20200;-60
2023/03/03 01:22:45;;;;;;;25.87;16.30;;;6.20;77.80;;;9.28;54.31;102431.50;4861301;29;20277;-58
2023/03/03 01:25:12;;;;;;;21.63;14.53;;;6.20;77.80;;;9.29;54.59;102434.03;4862382;29;20266;-58
2023/03/03 01:27:39;;;;;;;26.40;16.73;;;6.20;78.00;;;9.32;54.48;102435.53;4862738;29;20201;-59
2023/03/03 01:30:09;;;;;;;27.33;17.47;;;6.20;78.00;;;9.32;54.41;102436.38;4862811;29;20205;-59
2023/03/03 01:32:37;;;;;;;27.07;17.10;;;6.30;78.10;;;9.34;54.39;102437.09;4871822;29;20198;-59
2023/03/03 01:35:05;;;;;;;25.70;16.67;;;6.30;77.90;;;9.35;53.95;102435.31;4871665;29;20241;-59
2023/03/03 01:37:33;;;;;;;27.43;16.97;;;6.30;77.50;;;9.33;54.50;102429.34;4862271;29;20215;-56
2023/03/03 01:40:01;;;;;;;26.17;16.40;;;6.30;77.70;;;9.32;54.12;102427.66;4866279;29;20219;-56
2023/03/03 01:42:29;;;;;;;23.30;14.87;;;6.30;77.50;;;9.31;54.36;102428.63;4878419;29;20206;-57
2023/03/03 01:45:19;;;;;;;22.43;15.70;;;6.30;77.30;;;9.25;54.03;102422.09;4880279;29;20192;-58
2023/03/03 01:48:00;;;;;;;22.10;15.40;;;6.30;77.50;;;9.23;54.01;102418.75;4861104;29;20595;-59
2023/03/03 01:50:44;;;;;;;27.00;17.33;;;6.20;77.70;;;9.21;53.94;102420.66;4869703;29;20197;-60
2023/03/03 01:53:16;;;;;;;26.73;17.20;;;6.20;78.00;;;9.18;54.60;102415.66;4865626;29;20251;-59
2023/03/03 01:55:45;;;;;;;27.70;17.13;;;6.20;78.10;;;9.17;54.83;102411.38;4864924;29;20216;-58
2023/03/03 01:58:19;;;;;;;26.37;17.87;;;6.10;78.40;;;9.17;54.97;102406.13;4879576;29;20210;-58
2023/03/03 02:00:56;;;;;;;26.80;17.57;;;6.20;79.10;;;9.20;54.55;102403.22;4879152;29;20197;-59
2023/03/03 02:03:25;;;;;;;26.67;16.30;;;6.20;79.10;;;9.26;54.83;102396.66;4867158;29;20273;-59
2023/03/03 02:05:57;;;;;;;25.93;17.43;;;6.20;78.50;;;9.23;54.57;102399.50;4879129;29;20191;-59
2023/03/03 02:08:34;;;;;;;23.00;15.63;;;6.20;78.60;;;9.22;54.52;102401.31;4861312;29;20192;-57
2023/03/03 02:11:04;;;;;;;27.90;17.17;;;6.10;78.50;;;9.23;54.59;102400.34;4873457;29;20536;-58
2023/03/03 02:13:31;;;;;;;24.93;15.90;;;6.20;78.60;;;9.21;54.57;102404.91;4864307;29;20626;-59
2023/03/03 02:15:58;;;;;;;26.73;16.00;;;6.10;78.40;;;9.21;54.56;102414.56;4861170;29;20199;-59
2023/03/03 02:18:27;;;;;;;24.33;16.43;;;6.10;78.80;;;9.19;54.56;102406.00;4861064;29;20199;-58
2023/03/03 02:21:02;;;;;;;26.07;16.90;;;6.10;78.20;;;9.17;54.72;102413.16;4872404;29;20210;-59
2023/03/03 02:23:40;;;;;;;27.57;17.17;;;6.10;78.80;;;9.18;54.53;102415.66;4863289;29;20216;-59
2023/03/03 02:26:12;;;;;;;24.03;16.10;;;6.10;78.70;;;9.17;54.37;102408.75;4861365;29;20209;-60
2023/03/03 02:28:41;;;;;;;24.90;16.80;;;6.10;78.30;;;9.16;54.36;102411.47;4860172;29;20189;-59
2023/03/03 02:31:13;;;;;;;23.80;15.97;;;6.10;78.40;;;9.13;54.23;102411.75;4877367;29;20206;-58
2023/03/03 02:33:40;;;;;;;29.53;18.37;;;6.10;78.10;;;9.10;54.61;102402.31;4870284;29;20233;-56
2023/03/03 02:36:12;;;;;;;25.50;17.63;;;6.00;78.30;;;9.11;54.78;102409.22;4864277;29;20193;-59
2023/03/03 02:38:50;;;;;;;25.83;16.43;;;6.00;78.50;;;9.07;54.58;102399.09;4864338;29;20241;-59
2023/03/03 02:41:31;;;;;;;26.00;15.43;;;6.00;78.10;;;9.02;54.14;102404.72;4864507;29;20196;-58
2023/03/03 02:44:02;;;;;;;23.77;16.50;;;6.00;78.30;;;8.97;54.37;102404.25;4863610;29;20224;-59
2023/03/03 02:46:34;;;;;;;24.03;16.27;;;5.90;78.20;;;8.90;54.27;102405.69;4880188;29;20546;-57
2023/03/03 02:49:03;;;;;;;25.40;16.43;;;5.90;78.30;;;8.85;54.57;102405.22;4882627;29;20197;-58
2023/03/03 02:51:31;;;;;;;30.00;18.47;;;5.80;78.40;;;8.84;55.14;102407.00;4882374;29;20578;-58
2023/03/03 02:53:59;;;;;;;24.23;16.40;;;5.80;79.10;;;8.90;55.34;102410.13;4882006;29;20223;-59
2023/03/03 02:56:27;;;;;;;29.07;17.97;;;5.80;79.70;;;8.96;55.13;102402.59;4882525;29;20217;-57
2023/03/03 02:58:54;;;;;;;22.93;16.27;;;5.90;79.20;;;8.97;54.64;102399.00;4882465;29;20547;-58
2023/03/03 03:01:21;;;;;;;24.37;16.53;;;5.90;78.80;;;8.95;55.14;102395.66;4881883;29;20649;-59
2023/03/03 03:03:48;;;;;;;27.43;16.83;;;5.90;78.60;;;8.96;54.43;102404.38;4881457;29;20217;-60
2023/03/03 03:06:15;;;;;;;25.47;16.63;;;5.90;78.50;;;8.93;54.28;102405.47;4869852;29;20535;-59
2023/03/03 03:08:42;;;;;;;25.23;17.90;;;5.90;78.50;;;8.90;54.35;102402.25;4866363;29;20202;-60
2023/03/03 03:11:09;;;;;;;27.73;17.03;;;5.80;78.30;;;8.84;54.17;102403.59;4869811;29;20676;-58
2023/03/03 03:13:37;;;;;;;28.67;16.97;;;5.80;78.20;;;8.80;55.05;102395.09;4863900;29;20228;-59
2023/03/03 03:16:05;;;;;;;29.57;18.20;;;5.80;78.90;;;8.86;55.05;102396.41;4864347;29;20293;-59
2023/03/03 03:18:32;;;;;;;28.43;18.57;;;5.80;79.30;;;8.92;55.21;102398.53;4864188;29;20210;-58
2023/03/03 03:21:06;;;;;;;26.67;17.73;;;5.80;79.20;;;8.97;54.92;102401.63;4864280;29;20214;-59
2023/03/03 03:23:34;;;;;;;35.70;20.97;;;5.90;79.40;;;9.04;54.89;102402.81;4881761;29;20693;-60
2023/03/03 03:26:02;;;;;;;34.03;22.30;;;6.00;79.10;;;9.07;54.48;102397.31;4882555;29;20223;-57
2023/03/03 03:28:29;;;;;;;42.90;25.23;;;6.00;78.50;;;9.06;54.89;102408.75;4882482;29;20200;-55
2023/03/03 03:30:58;;;;;;;41.50;24.23;;;6.00;78.50;;;9.03;54.63;102400.31;4875764;29;20250;-58
2023/03/03 03:33:27;;;;;;;37.97;23.27;;;6.00;78.60;;;9.03;54.25;102406.41;4864659;29;20272;-58
2023/03/03 03:35:54;;;;;;;39.47;24.23;;;6.00;78.90;;;9.05;54.96;102404.50;4864462;29;20218;-57
2023/03/03 03:38:21;;;;;;;45.20;25.77;;;6.00;79.30;;;9.07;54.99;102405.19;4864150;29;20602;-57
2023/03/03 03:40:49;;;;;;;45.07;26.00;;;6.00;78.90;;;9.06;54.76;102410.53;4853813;29;20257;-56
2023/03/03 03:43:16;;;;;;;44.20;25.03;;;6.00;78.80;;;9.05;54.83;102409.75;4869568;29;20628;-57
2023/03/03 03:45:43;;;;;;;36.67;22.57;;;6.00;79.30;;;9.06;54.69;102405.28;4857235;29;20198;-60
2023/03/03 03:48:12;;;;;;;40.23;23.00;;;6.00;79.40;;;9.04;54.96;102413.31;4885724;29;20198;-60
2023/03/03 03:50:39;;;;;;;38.30;22.57;;;6.00;79.20;;;9.02;54.88;102409.13;4884932;29;20204;-59
2023/03/03 03:53:08;;;;;;;38.30;23.10;;;5.90;79.30;;;9.02;55.32;102415.22;4873189;29;20230;-60
2023/03/03 03:55:35;;;;;;;41.60;23.47;;;5.90;79.80;;;9.05;55.26;102417.63;4868405;29;20227;-59
2023/03/03 03:58:02;;;;;;;43.57;23.70;;;5.90;79.90;;;9.07;55.21;102418.31;4883435;29;20198;-59
2023/03/03 04:00:29;;;;;;;37.63;21.57;;;6.00;79.70;;;9.06;54.78;102416.63;4882556;29;20199;-56
2023/03/03 04:02:56;;;;;;;40.10;23.17;;;6.00;79.70;;;9.04;55.04;102423.81;4880920;29;20233;-59
2023/03/03 04:05:27;;;;;;;37.17;22.13;;;5.90;79.60;;;9.01;55.01;102418.78;4881421;29;20204;-57
2023/03/03 04:08:03;;;;;;;45.43;25.77;;;5.90;79.40;;;9.00;55.32;102425.03;4882045;29;20254;-61
2023/03/03 04:10:30;;;;;;;46.43;25.43;;;6.00;79.70;;;9.01;54.91;102434.56;4878166;29;20227;-60
2023/03/03 04:12:57;;;;;;;36.07;23.00;;;6.00;79.40;;;9.02;55.21;102425.72;4870593;29;20625;-59
2023/03/03 04:15:24;;;;;;;41.97;22.47;;;5.90;79.80;;;9.06;55.40;102427.16;4881198;29;20228;-56
2023/03/03 04:17:51;;;;;;;37.97;22.43;;;5.90;79.80;;;9.08;55.36;102416.53;4881306;29;20199;-59
2023/03/03 04:20:18;;;;;;;38.23;22.77;;;6.00;79.50;;;9.07;55.12;102420.94;4880020;29;20200;-57
2023/03/03 04:22:47;;;;;;;39.63;22.77;;;6.00;80.30;;;9.09;54.90;102419.03;4872615;29;20254;-58
2023/03/03 04:25:16;;;;;;;43.90;24.40;;;6.00;79.60;;;9.10;55.29;102407.56;4884710;29;20196;-58
2023/03/03 04:27:43;;;;;;;42.37;24.03;;;6.00;79.70;;;9.13;54.99;102411.75;4881635;29;20683;-59
2023/03/03 04:30:13;;;;;;;38.23;21.70;;;6.10;79.60;;;9.16;54.98;102412.31;4880624;29;20195;-59
2023/03/03 04:32:40;;;;;;;40.33;22.87;;;6.10;79.30;;;9.16;54.76;102412.31;4863975;29;20221;-57
2023/03/03 04:35:09;;;;;;;41.07;23.90;;;6.10;79.10;;;9.14;54.54;102408.16;4864382;29;20228;-56
2023/03/03 04:37:37;;;;;;;36.40;22.93;;;6.10;78.90;;;9.13;55.07;102409.94;4864324;29;20277;-59
2023/03/03 04:40:08;;;;;;;36.63;21.20;;;6.10;78.80;;;9.10;54.70;102414.63;4863897;29;20196;-59
2023/03/03 04:42:36;;;;;;;36.67;22.00;;;6.00;78.70;;;9.07;54.67;102417.47;4863502;29;20555;-58
2023/03/03 04:45:05;;;;;;;35.27;20.57;;;6.00;78.90;;;9.04;54.58;102408.06;4867939;29;20197;-57
2023/03/03 04:47:32;;;;;;;37.93;21.50;;;6.00;79.00;;;9.04;55.02;102405.44;4880854;29;20216;-58
2023/03/03 04:49:59;;;;;;;35.90;21.13;;;6.00;79.30;;;9.02;54.89;102402.09;4880588;29;20211;-59
2023/03/03 04:52:27;;;;;;;36.00;21.37;;;6.00;79.20;;;9.00;54.60;102401.38;4876306;29;20203;-58
2023/03/03 04:54:54;;;;;;;37.83;21.50;;;6.00;79.20;;;9.00;54.90;102408.44;4880218;29;20228;-59
2023/03/03 04:57:22;;;;;;;36.23;21.67;;;5.90;79.20;;;8.99;54.87;102397.09;4880176;29;20202;-58
2023/03/03 04:59:49;;;;;;;34.20;21.27;;;5.90;79.40;;;9.03;55.04;102395.91;4881051;29;20291;-61
2023/03/03 05:02:16;;;;;;;34.27;20.33;;;6.00;80.00;;;9.07;54.79;102394.69;4875537;29;20213;-57
2023/03/03 05:04:43;;;;;;;31.73;19.17;;;5.90;79.70;;;9.09;55.09;102387.50;4880169;29;20200;-57
2023/03/03 05:07:10;;;;;;;33.97;20.30;;;6.00;79.70;;;9.10;54.92;102386.56;4880795;29;20192;-58
2023/03/03 05:09:37;;;;;;;32.50;19.60;;;6.00;79.70;;;9.11;55.08;102388.22;4880537;29;20202;-58
2023/03/03 05:12:05;;;;;;;31.77;19.10;;;6.00;79.60;;;9.11;54.96;102393.47;4879333;29;20201;-56
2023/03/03 05:14:33;;;;;;;34.30;20.03;;;6.00;79.60;;;9.11;54.98;102393.47;4880133;29;20299;-57
2023/03/03 05:17:03;;;;;;;22.73;14.50;;;6.10;79.50;;;9.09;54.77;102382.25;4863868;29;20196;-60
2023/03/03 05:19:30;;;;;;;20.97;11.90;;;6.00;79.40;;;9.06;54.79;102385.13;4880108;29;20207;-58
2023/03/03 05:21:57;;;;;;;20.47;12.97;;;6.00;79.20;;;9.02;55.53;102386.34;4867659;29;20298;-57
2023/03/03 05:24:24;;;;;;;15.73;10.97;;;6.00;79.80;;;9.04;55.36;102381.78;4861282;29;20223;-58
2023/03/03 05:26:51;;;;;;;19.00;12.03;;;6.00;79.70;;;9.08;55.36;102385.81;4861889;29;20196;-59
2023/03/03 05:29:18;;;;;;;23.20;14.30;;;6.00;80.10;;;9.13;55.66;102381.03;4862259;29;20599;-57
2023/03/03 05:31:46;;;;;;;23.67;14.43;;;6.10;80.60;;;9.21;55.42;102383.06;4861971;29;20542;-57
2023/03/03 05:34:13;;;;;;;23.87;15.67;;;6.10;80.60;;;9.26;55.51;102389.63;4846481;29;20228;-58
2023/03/03 05:36:40;;;;;;;21.77;13.23;;;6.20;80.40;;;9.32;55.23;102389.09;4864443;29;20282;-58
2023/03/03 05:39:07;;;;;;;14.93;9.67;;;6.20;80.10;;;9.35;55.13;102378.34;4864585;29;20196;-59
2023/03/03 05:41:35;;;;;;;14.30;9.63;;;6.30;79.70;;;9.34;54.83;102381.91;4872813;29;20207;-59
2023/03/03 05:44:02;;;;;;;15.60;8.60;;;6.30;79.50;;;9.31;55.12;102392.69;4863969;29;20297;-57
2023/03/03 05:46:29;;;;;;;16.23;9.77;;;6.30;79.60;;;9.28;55.14;102390.31;4882696;29;20237;-59
2023/03/03 05:48:58;;;;;;;12.77;9.83;;;6.30;79.70;;;9.25;55.01;102395.81;4883191;29;20600;-59
2023/03/03 05:51:25;;;;;;;13.20;8.47;;;6.30;79.50;;;9.21;55.15;102389.16;4881961;29;20200;-59
2023/03/03 05:53:52;;;;;;;14.10;9.63;;;6.20;79.80;;;9.19;54.94;102401.56;4865084;29;20236;-60
2023/03/03 05:56:22;;;;;;;13.37;10.37;;;6.20;79.90;;;9.17;55.58;102403.50;4873040;29;20291;-58
2023/03/03 05:58:49;;;;;;;17.43;10.30;;;6.20;80.20;;;9.17;56.12;102414.00;4870440;29;20235;-59
2023/03/03 06:01:16;;;;;;;14.00;9.67;;;6.10;80.70;;;9.21;55.93;102414.56;4869665;29;20568;-59
2023/03/03 06:03:43;;;;;;;13.87;10.20;;;6.20;80.80;;;9.23;55.78;102412.66;4868182;29;20217;-58
2023/03/03 06:06:12;;;;;;;16.77;10.90;;;6.20;80.90;;;9.24;55.98;102412.56;4884086;29;20226;-60
2023/03/03 06:08:40;;;;;;;14.70;10.53;;;6.20;81.20;;;9.29;55.86;102422.69;4884805;29;20202;-59
2023/03/03 06:11:06;;;;;;;14.13;10.73;;;6.20;81.20;;;9.31;55.70;102413.72;4883889;29;20213;-59
2023/03/03 06:13:33;;;;;;;14.67;10.70;;;6.20;81.00;;;9.33;55.85;102419.69;4873460;29;20254;-56
2023/03/03 06:16:00;;;;;;;16.80;10.50;;;6.30;80.60;;;9.33;55.96;102429.34;4866479;29;20629;-58
2023/03/03 06:18:27;;;;;;;17.93;12.03;;;6.30;80.90;;;9.37;55.80;102428.13;4883787;29;20200;-56
2023/03/03 06:20:55;;;;;;;15.20;11.03;;;6.30;81.10;;;9.40;55.95;102426.09;4879790;29;20749;-57
2023/03/03 06:23:23;;;;;;;17.93;12.30;;;6.30;81.40;;;9.45;56.11;102429.19;4864716;29;20618;-57
2023/03/03 06:25:51;;;;;;;19.43;11.53;;;6.40;81.00;;;9.48;55.59;102434.16;4864849;29;20265;-59
2023/03/03 06:28:18;;;;;;;16.53;12.10;;;6.40;81.00;;;9.47;55.71;102437.78;4864843;29;20200;-57
2023/03/03 06:30:45;;;;;;;14.83;10.50;;;6.40;80.60;;;9.45;55.39;102429.19;4865004;29;20215;-60
2023/03/03 06:33:12;;;;;;;16.27;10.30;;;6.40;80.60;;;9.43;55.63;102440.78;4864093;29;20227;-59
2023/03/03 06:35:39;;;;;;;16.00;10.80;;;6.40;80.50;;;9.41;55.37;102437.44;4865238;29;20232;-60
2023/03/03 06:38:06;;;;;;;19.03;12.30;;;6.30;80.40;;;9.39;55.30;102434.94;4865059;29;20623;-58
2023/03/03 06:40:35;;;;;;;18.50;12.13;;;6.30;80.30;;;9.36;55.57;102445.72;4864885;29;20711;-59
2023/03/03 06:43:03;;;;;;;18.67;11.50;;;6.30;80.40;;;9.34;55.36;102436.28;4864200;29;20703;-60
2023/03/03 06:45:30;;;;;;;16.80;11.43;;;6.30;80.70;;;9.34;55.77;102439.72;4874013;29;20199;-58
2023/03/03 06:47:57;;;;;;;18.47;11.53;;;6.30;80.80;;;9.32;55.70;102444.28;4882540;29;20202;-59
2023/03/03 06:50:24;;;;;;;18.97;12.10;;;6.20;80.70;;;9.31;55.76;102442.63;4882943;29;20570;-60
2023/03/03 06:53:04;;;;;;;17.57;12.03;;;6.20;81.20;;;9.31;55.73;102444.41;4872659;29;20220;-56
2023/03/03 06:55:30;;;;;;;22.07;14.90;;;6.20;81.30;;;9.31;55.76;102447.03;4880303;29;20279;-57
2023/03/03 06:58:01;;;;;;;34.43;22.97;;;6.20;81.20;;;9.35;56.48;102446.66;4882749;29;20192;-58
2023/03/03 07:00:29;;;;;;;18.77;13.07;;;6.30;82.10;;;9.44;56.12;102453.78;4882470;29;20197;-59
2023/03/03 07:03:01;;;;;;;18.00;12.60;;;6.30;81.80;;;9.48;56.22;102452.56;4881195;29;20669;-57
2023/03/03 07:05:28;;;;;;;20.67;13.57;;;6.40;81.30;;;9.52;56.17;102459.25;4882191;29;20203;-57
2023/03/03 07:07:56;;;;;;;17.10;12.80;;;6.40;81.30;;;9.58;56.31;102464.97;4882689;29;20196;-56
2023/03/03 07:10:26;;;;;;;20.53;13.77;;;6.50;81.60;;;9.65;56.16;102460.91;4882733;29;20216;-58
2023/03/03 07:13:15;;;;;;;20.90;13.10;;;6.50;81.60;;;9.75;55.75;102467.03;4872151;29;20223;-60
2023/03/03 07:15:44;;;;;;;18.73;12.73;;;6.60;81.70;;;9.85;56.12;102467.97;4847474;29;20217;-58
2023/03/03 07:18:31;;;;;;;16.70;12.57;;;6.70;81.10;;;9.88;55.83;102472.97;4863874;29;20261;-60
2023/03/03 07:21:03;;;;;;;18.50;13.50;;;6.80;80.60;;;9.95;55.92;102469.72;4863855;29;20193;-59
2023/03/03 07:23:41;;;;;;;16.00;12.07;;;6.80;80.50;;;9.99;55.06;102483.44;4846688;29;20355;-59
2023/03/03 07:26:12;;;;;;;16.33;12.30;;;6.80;80.10;;;10.02;55.01;102472.66;4847133;29;20204;-58
2023/03/03 07:28:43;;;;;;;16.30;11.77;;;6.90;79.80;;;10.03;55.03;102482.22;4868224;29;20207;-59
2023/03/03 07:31:28;;;;;;;17.87;13.60;;;6.90;79.40;;;9.98;54.72;102479.13;4866832;29;20209;-59
2023/03/03 07:33:58;;;;;;;19.57;13.13;;;6.90;79.20;;;9.99;55.36;102486.91;4864062;29;20243;-59
2023/03/03 07:36:30;;;;;;;15.37;11.50;;;6.90;79.50;;;10.03;54.82;102483.03;4863971;29;20224;-59
2023/03/03 07:39:00;;;;;;;15.70;11.63;;;6.90;80.00;;;10.06;54.81;102482.78;4868011;29;20196;-57
2023/03/03 07:41:30;;;;;;;22.63;15.00;;;7.00;79.10;;;10.09;55.00;102486.97;4881565;29;20200;-57
2023/03/03 07:44:04;;;;;;;20.53;14.93;;;7.00;79.40;;;10.18;54.50;102483.59;4881160;29;20224;-61
2023/03/03 07:46:42;;;;;;;18.50;11.37;;;7.00;79.50;;;10.25;54.85;102479.47;4882173;29;20212;-60
2023/03/03 07:49:22;;;;;;;14.93;11.27;;;7.10;79.10;;;10.34;54.24;102473.44;4886529;29;20196;-58
2023/03/03 07:51:54;;;;;;;17.93;12.80;;;7.20;79.20;;;10.46;53.68;102471.59;4883473;29;20199;-58
2023/03/03 07:54:32;;;;;;;14.30;10.27;;;7.30;79.00;;;10.55;54.11;102469.00;4881827;29;20579;-59
2023/03/03 07:57:13;;;;;;;10.10;7.67;;;7.40;78.60;;;10.59;53.31;102469.56;4877733;29;20253;-64
2023/03/03 07:59:47;;;;;;;11.47;7.63;;;7.40;77.80;;;10.59;53.03;102475.66;4874338;29;20199;-58
2023/03/03 08:02:38;;;;;;;13.17;8.23;;;7.40;77.20;;;10.61;52.97;102472.88;4875714;29;20290;-59
2023/03/03 08:05:29;;;;;;;13.27;8.97;;;7.40;77.20;;;10.66;53.13;102475.97;4881660;29;20645;-57
2023/03/03 08:08:21;;;;;;;12.03;9.17;;;7.50;77.20;;;10.77;53.01;102476.69;4869612;29;20586;-58
2023/03/03 08:10:55;;;;;;;10.50;7.60;;;7.50;76.90;;;10.87;52.76;102464.41;4869362;29;20273;-58
2023/03/03 08:13:26;;;;;;;11.77;8.33;;;7.60;76.80;;;10.98;52.16;102460.00;4858888;29;20233;-60
2023/03/03 08:16:01;;;;;;;9.50;8.10;;;7.60;76.50;;;11.16;51.96;102458.38;4862946;29;20276;-60
2023/03/03 08:18:35;;;;;;;11.67;8.10;;;7.70;76.70;;;11.36;51.49;102460.88;4862113;29;20216;-60
2023/03/03 08:21:07;;;;;;;9.73;7.37;;;7.90;76.60;;;11.64;51.81;102472.44;4863437;29;20655;-59
2023/03/03 08:23:34;;;;;;;10.70;7.50;;;8.10;76.50;;;11.89;51.24;102473.69;4864683;29;20659;-57
2023/03/03 08:26:01;;;;;;;9.03;6.93;;;8.30;75.60;;;12.01;50.72;102468.13;4879970;29;20203;-58
2023/03/03 08:28:28;;;;;;;14.33;7.73;;;8.40;74.30;;;12.14;49.89;102473.97;4858668;29;20220;-59
2023/03/03 08:30:56;;;;;;;9.50;7.43;;;8.60;74.60;;;12.26;49.43;102465.88;4877797;29;20283;-60
2023/03/03 08:33:44;;;;;;;11.80;8.90;;;8.70;73.90;;;12.29;49.23;102466.41;4870070;29;20590;-58
2023/03/03 08:36:12;;;;;;;29.37;22.37;;;8.80;73.40;;;12.32;48.82;102460.84;4858133;29;20223;-59
2023/03/03 08:38:40;;;;;;;18.57;13.10;;;8.90;72.50;;;12.40;48.79;102457.50;4876736;29;20203;-59
2023/03/03 08:41:07;;;;;;;15.37;11.57;;;9.00;72.30;;;12.58;48.56;102468.97;4877307;29;20212;-57
2023/03/03 08:43:34;;;;;;;9.83;7.30;;;9.10;72.60;;;12.69;48.12;102461.69;4877903;29;20235;-59
2023/03/03 08:46:05;;;;;;;10.17;7.87;;;9.20;71.60;;;12.62;47.33;102468.53;4878668;29;20287;-56
2023/03/03 08:48:33;;;;;;;8.77;7.00;;;9.30;70.00;;;12.58;47.68;102466.31;4873885;29;20203;-57
2023/03/03 08:51:01;;;;;;;9.03;7.47;;;9.30;70.00;;;12.61;47.58;102463.41;4880758;29;20223;-60
2023/03/03 08:53:30;;;;;;;8.30;7.13;;;9.30;70.00;;;12.62;47.30;102452.69;4875437;29;20224;-60
2023/03/03 08:55:57;;;;;;;11.13;8.10;;;9.20;69.90;;;12.60;46.98;102459.91;4861012;29;20219;-57
2023/03/03 08:58:24;;;;;;;10.03;7.40;;;9.30;69.70;;;12.64;47.69;102466.59;4869571;29;20211;-60
2023/03/03 09:01:02;;;;;;;8.73;7.33;;;9.30;69.90;;;12.76;47.31;102465.44;4874089;29;20238;-60
2023/03/03 09:03:30;;;;;;;10.83;8.93;;;9.40;69.60;;;13.12;47.33;102466.34;4861800;29;20247;-63
2023/03/03 09:05:57;;;;;;;7.67;6.87;;;9.50;70.20;;;13.80;47.00;102477.28;4879915;29;20207;-57
2023/03/03 09:08:26;;;;;;;9.60;7.43;;;9.80;71.30;;;14.48;45.48;102471.19;4871521;29;20703;-57
2023/03/03 09:10:53;;;;;;;8.63;6.83;;;10.10;68.50;;;14.93;44.33;102474.38;4874229;29;20204;-61
2023/03/03 09:13:20;;;;;;;9.27;7.77;;;10.40;67.30;;;15.20;42.92;102475.13;4875266;29;20231;-63
2023/03/03 09:15:49;;;;;;;8.63;7.73;;;10.80;66.40;;;15.21;42.83;102472.34;4879550;29;20235;-59
2023/03/03 09:18:19;;;;;;;9.63;7.23;;;11.00;65.50;;;15.17;42.83;102475.44;4866728;29;20215;-60
2023/03/03 09:20:48;;;;;;;10.57;8.27;;;11.20;64.40;;;15.13;42.13;102480.25;4869781;29;20205;-60
2023/03/03 09:23:35;;;;;;;10.07;7.83;;;11.30;63.00;;;14.91;41.11;102484.31;4878928;29;20689;-57
2023/03/03 09:26:29;;;;;;;8.20;6.97;;;11.30;61.00;;;14.54;42.52;102478.53;4868618;29;20669;-60
2023/03/03 09:29:22;;;;;;;8.10;6.70;;;11.20;61.80;;;14.33;42.88;102472.78;4880041;29;20228;-59
2023/03/03 09:31:52;;;;;;;12.83;7.03;;;11.10;62.00;;;14.24;43.32;102485.06;4867520;29;20213;-60
2023/03/03 09:34:26;;;;;;;8.57;6.37;;;11.00;62.20;;;14.12;43.54;102480.22;4871579;29;20227;-59
2023/03/03 09:36:54;;;;;;;8.23;6.33;;;10.80;62.40;;;14.02;43.67;102482.13;4878659;29;20231;-59
2023/03/03 09:39:24;;;;;;;8.37;4.57;;;10.70;63.00;;;13.91;43.85;102474.41;4874682;29;20574;-59
2023/03/03 09:42:51;;;;;;;6.77;5.40;;;10.60;62.70;;;13.78;43.95;102473.97;4864288;29;20212;-56
2023/03/03 09:45:51;;;;;;;7.63;6.37;;;10.50;63.40;;;13.59;43.91;102477.59;4867043;29;20234;-57
2023/03/03 09:48:45;;;;;;;9.20;6.40;;;10.40;63.50;;;13.62;44.33;102477.28;4872255;29;20236;-60
2023/03/03 09:51:35;;;;;;;8.57;6.43;;;10.40;64.10;;;13.76;44.08;102473.28;4870894;29;20215;-56
2023/03/03 09:54:30;;;;;;;10.40;8.37;;;10.30;64.50;;;13.76;44.09;102479.44;4862029;29;20225;-58
2023/03/03 09:57:11;;;;;;;9.33;7.30;;;10.40;64.50;;;13.76;44.47;102476.78;4874139;29;20218;-58
2023/03/03 10:00:01;;;;;;;9.33;6.77;;;10.40;63.80;;;13.77;44.28;102480.22;4867029;29;20646;-57
2023/03/03 10:02:52;;;;;;;10.03;6.20;;;10.40;63.90;;;13.85;44.28;102475.03;4866443;29;20216;-60
2023/03/03 10:05:46;;;;;;;8.67;7.23;;;10.40;64.00;;;13.95;44.00;102478.41;4870036;29;20215;-60
2023/03/03 10:08:36;;;;;;;8.10;7.30;;;10.50;64.40;;;14.11;43.84;102476.72;4867926;29;20204;-59
2023/03/03 10:11:18;;;;;;;10.07;6.80;;;10.50;64.30;;;14.21;43.69;102474.78;4873354;29;20204;-59
2023/03/03 10:14:06;;;;;;;9.80;7.03;;;10.60;63.40;;;14.25;43.33;102484.09;4860609;29;20224;-59
2023/03/03 10:17:02;;;;;;;17.07;12.90;;;10.60;63.80;;;14.32;42.94;102470.25;4862338;29;20228;-58
2023/03/03 10:19:39;;;;;;;19.50;12.87;;;10.70;63.00;;;14.39;42.37;102471.28;4869236;29;20280;-60
2023/03/03 10:22:23;;;;;;;12.40;10.33;;;10.80;62.10;;;14.41;42.59;102472.81;4886393;29;20210;-61
2023/03/03 10:25:09;;;;;;;30.13;25.33;;;10.80;61.80;;;14.53;42.68;102482.16;4863912;29;20207;-58
2023/03/03 10:27:56;;;;;;;17.47;12.60;;;10.80;62.50;;;14.65;42.50;102485.34;4879750;29;20251;-59
2023/03/03 10:30:39;;;;;;;14.67;10.57;;;10.90;62.60;;;14.74;42.24;102485.22;4878173;29;20199;-57